Geroi Shipki — EOIB — position and weather

sailwx.info

Track history (hours):
 
Tides and Currents Weather Stations Pressure Air Temp Water Temp Dewpoint Dewpoint Depression Visibility Wind Speed Wind Dir Waves Ship Positions

Geroi Shipki

Last reported at 2014-Oct-17 20:25 UTC. Time now 2014-Oct-25 18:21 UTC.
Position N 43°47' E 035°04'.

Length 184 m; draft 7.2 m.

Type: Cargo ship. MMSI: 272976000.

Date/timePositionNaut miles runAvg speedWind from/ knotsBaromVisibWave heightAir tempDewpointWater temp
2014-Oct-17 20:25N 43°47' E 035°04'7 8.5
2014-Oct-17 19:33N 43°49' E 034°54'9 8.7
2014-Oct-17 18:33N 43°52' E 034°43'8 8.5
2014-Oct-17 17:33N 43°55' E 034°32'8 8.2
2014-Oct-17 16:33N 43°58' E 034°21'8 8.4
2014-Oct-17 15:33N 44°01' E 034°10'12 8.7
2014-Oct-17 14:10N 44°04' E 033°54'131 8.3
2014-Oct-16 22:17N 45°37' E 031°43'50 1.1
2014-Oct-15 02:10N 46°16' E 030°58'712.0
2014-Oct-15 01:33N 46°11' E 031°05'1111.1
2014-Oct-15 00:33N 46°03' E 031°17'1111.2
2014-Oct-14 23:33N 45°55' E 031°28'1111.3
2014-Oct-14 22:33N 45°46' E 031°39'1111.4
2014-Oct-14 21:33N 45°38' E 031°50'1111.3
2014-Oct-14 20:33N 45°29' E 031°60'1111.2
2014-Oct-14 19:33N 45°20' E 032°09'1111.3
2014-Oct-14 18:33N 45°11' E 032°19'1211.7
2014-Oct-14 17:33N 45°03' E 032°31'1312.6
2014-Oct-14 16:33N 44°54' E 032°43'1110.8
2014-Oct-14 15:33N 44°46' E 032°53'59 9.7
2014-Oct-14 09:30N 44°06' E 033°54'1212.4
2014-Oct-14 08:32N 44°02' E 034°10'1212.1
2014-Oct-14 07:33N 43°57' E 034°25'1212.1
2014-Oct-14 06:33N 43°52' E 034°40'1212.1
2014-Oct-14 05:32N 43°47' E 034°56'1212.1
2014-Oct-14 04:33N 43°43' E 035°11'1211.8
2014-Oct-14 03:33N 43°38' E 035°26'1211.7
2014-Oct-14 02:33N 43°33' E 035°41'1211.6
2014-Oct-14 01:33N 43°29' E 035°56'1611.9
2014-Oct-14 00:13N 43°22' E 036°16'  
Track history (hours):
 
Tides and Currents Weather Stations Pressure Air Temp Water Temp Dewpoint Dewpoint Depression Visibility Wind Speed Wind Dir Waves Ship Positions

Geroi Shipki

Last reported at 2014-Oct-17 20:25 UTC. Time now 2014-Oct-25 18:21 UTC.
Position N 43°47' E 035°04'.

Length 184 m; draft 7.2 m.

Type: Cargo ship. MMSI: 272976000.

Date/timePositionNaut miles runAvg speedWind from/ knotsBaromVisibWave heightAir tempDewpointWater temp
2014-Oct-17 20:25N 43°47' E 035°04'7 8.5
2014-Oct-17 19:33N 43°49' E 034°54'9 8.7
2014-Oct-17 18:33N 43°52' E 034°43'8 8.5
2014-Oct-17 17:33N 43°55' E 034°32'8 8.2
2014-Oct-17 16:33N 43°58' E 034°21'8 8.4
2014-Oct-17 15:33N 44°01' E 034°10'12 8.7
2014-Oct-17 14:10N 44°04' E 033°54'131 8.3
2014-Oct-16 22:17N 45°37' E 031°43'50 1.1
2014-Oct-15 02:10N 46°16' E 030°58'712.0
2014-Oct-15 01:33N 46°11' E 031°05'1111.1
2014-Oct-15 00:33N 46°03' E 031°17'1111.2
2014-Oct-14 23:33N 45°55' E 031°28'1111.3
2014-Oct-14 22:33N 45°46' E 031°39'1111.4
2014-Oct-14 21:33N 45°38' E 031°50'1111.3
2014-Oct-14 20:33N 45°29' E 031°60'1111.2
2014-Oct-14 19:33N 45°20' E 032°09'1111.3
2014-Oct-14 18:33N 45°11' E 032°19'1211.7
2014-Oct-14 17:33N 45°03' E 032°31'1312.6
2014-Oct-14 16:33N 44°54' E 032°43'1110.8
2014-Oct-14 15:33N 44°46' E 032°53'59 9.7
2014-Oct-14 09:30N 44°06' E 033°54'1212.4
2014-Oct-14 08:32N 44°02' E 034°10'1212.1
2014-Oct-14 07:33N 43°57' E 034°25'1212.1
2014-Oct-14 06:33N 43°52' E 034°40'1212.1
2014-Oct-14 05:32N 43°47' E 034°56'1212.1
2014-Oct-14 04:33N 43°43' E 035°11'1211.8
2014-Oct-14 03:33N 43°38' E 035°26'1211.7
2014-Oct-14 02:33N 43°33' E 035°41'1211.6
2014-Oct-14 01:33N 43°29' E 035°56'1611.9
2014-Oct-14 00:13N 43°22' E 036°16'  

Dump ship's entire track history